Observation data for Seagraves on 07/12/2018      Previous  Date  Next       Current Mesonet Observations  Soil Data  Daily Summary Page  Observations in Plain Language
KSGV 120500Z 17007KT 26/14 A301 RMK A01 T02600139  RH  049%=      5-min Rain = 0
KSGV 120505Z 17007KT 26/14 A3011 RMK A01 T02610139  RH  049%=      5-min Rain = 0
KSGV 120510Z 17006KT 26/14 A3011 RMK A01 T02600139  RH  049%=      5-min Rain = 0
KSGV 120515Z 17006KT 26/14 A3011 RMK A01 T02600138  RH  049%=      5-min Rain = 0
KSGV 120520Z 16007KT 26/14 A3011 RMK A01 T02620137  RH  048%=      5-min Rain = 0
KSGV 120525Z 17008KT 26/14 A3011 RMK A01 T02630135  RH  047%=      5-min Rain = 0
KSGV 120530Z 17009KT 27/13 A3011 RMK A01 T02650134  RH  046%=      5-min Rain = 0
KSGV 120535Z 16008KT 27/13 A3012 RMK A01 T02660132  RH  045%=      5-min Rain = 0
KSGV 120540Z 16009KT 27/13 A3012 RMK A01 T02660132  RH  045%=      5-min Rain = 0
KSGV 120545Z 16008KT 27/13 A3011 RMK A01 T02650132  RH  046%=      5-min Rain = 0
KSGV 120550Z 16008KT 26/13 A3011 RMK A01 T02630132  RH  046%=      5-min Rain = 0
KSGV 120555Z 16009KT 26/13 A3011 RMK A01 T02610131  RH  047%=      5-min Rain = 0
KSGV 120600Z 17009KT 26/13 A3011 RMK A01 T02600131  RH  047%=      5-min Rain = 0
KSGV 120605Z 17009KT 26/13 A3011 RMK A01 T02580131  RH  047%=      5-min Rain = 0
KSGV 120610Z 17009KT 26/13 A3011 RMK A01 T02570131  RH  048%=      5-min Rain = 0
KSGV 120615Z 17009KT 26/13 A3011 RMK A01 T02560131  RH  048%=      5-min Rain = 0
KSGV 120620Z 17009KT 26/13 A3011 RMK A01 T02550131  RH  048%=      5-min Rain = 0
KSGV 120625Z 17009KT 25/13 A3011 RMK A01 T02540131  RH  048%=      5-min Rain = 0
KSGV 120630Z 17008KT 25/13 A3011 RMK A01 T02530131  RH  048%=      5-min Rain = 0
KSGV 120635Z 18008KT 25/13 A3011 RMK A01 T02520131  RH  049%=      5-min Rain = 0
KSGV 120640Z 18009KT 25/13 A3011 RMK A01 T02510131  RH  049%=      5-min Rain = 0
KSGV 120645Z 18008KT 25/13 A3011 RMK A01 T02500131  RH  050%=      5-min Rain = 0
KSGV 120650Z 19008KT 25/13 A3011 RMK A01 T02490131  RH  050%=      5-min Rain = 0
KSGV 120655Z 19008KT 25/13 A3011 RMK A01 T02480132  RH  050%=      5-min Rain = 0
KSGV 120700Z 18007KT 25/13 A3011 RMK A01 T02470133  RH  051%=      5-min Rain = 0
KSGV 120705Z 18008KT 25/13 A3011 RMK A01 T02460134  RH  052%=      5-min Rain = 0
KSGV 120710Z 18007KT 25/14 A3011 RMK A01 T02450135  RH  052%=      5-min Rain = 0
KSGV 120715Z 19007KT 24/14 A3011 RMK A01 T02440136  RH  053%=      5-min Rain = 0
KSGV 120720Z 19006KT 24/14 A3011 RMK A01 T02420136  RH  054%=      5-min Rain = 0
KSGV 120725Z 19007KT 24/14 A3011 RMK A01 T02410137  RH  054%=      5-min Rain = 0
KSGV 120730Z 19006KT 24/14 A3011 RMK A01 T02400138  RH  055%=      5-min Rain = 0
KSGV 120735Z 19006KT 24/14 A3011 RMK A01 T02390138  RH  056%=      5-min Rain = 0
KSGV 120740Z 19007KT 24/14 A301 RMK A01 T02390139  RH  056%=      5-min Rain = 0
KSGV 120745Z 19008KT 24/14 A301 RMK A01 T02390139  RH  056%=      5-min Rain = 0
KSGV 120750Z 19008KT 24/14 A301 RMK A01 T02390140  RH  056%=      5-min Rain = 0
KSGV 120755Z 19008KT 24/14 A301 RMK A01 T02400139  RH  056%=      5-min Rain = 0
KSGV 120800Z 18008KT 24/14 A301 RMK A01 T02410139  RH  055%=      5-min Rain = 0
KSGV 120805Z 18009KT 24/14 A301 RMK A01 T02410139  RH  055%=      5-min Rain = 0
KSGV 120810Z 18009KT 24/14 A301 RMK A01 T02410140  RH  055%=      5-min Rain = 0
KSGV 120815Z 19009KT 24/14 A301 RMK A01 T02410140  RH  056%=      5-min Rain = 0
KSGV 120820Z 19008KT 24/14 A301 RMK A01 T02400141  RH  056%=      5-min Rain = 0
KSGV 120825Z 19008KT 24/14 A301 RMK A01 T02400141  RH  056%=      5-min Rain = 0
KSGV 120830Z 18008KT 24/14 A3011 RMK A01 T02390142  RH  057%=      5-min Rain = 0
KSGV 120835Z 18008KT 24/14 A3011 RMK A01 T02390142  RH  057%=      5-min Rain = 0
KSGV 120840Z 19007KT 24/14 A3011 RMK A01 T02380142  RH  058%=      5-min Rain = 0
KSGV 120845Z 19007KT 24/14 A3011 RMK A01 T02360142  RH  058%=      5-min Rain = 0
KSGV 120850Z 19006KT 24/14 A3011 RMK A01 T02350143  RH  058%=      5-min Rain = 0
KSGV 120855Z 20006KT 24/14 A3011 RMK A01 T02350143  RH  059%=      5-min Rain = 0
KSGV 120900Z 19006KT 24/14 A301 RMK A01 T02350143  RH  059%=      5-min Rain = 0
KSGV 120905Z 19006KT 23/14 A301 RMK A01 T02340143  RH  059%=      5-min Rain = 0
KSGV 120910Z 19006KT 23/14 A301 RMK A01 T02330143  RH  060%=      5-min Rain = 0
KSGV 120915Z 19006KT 23/14 A301 RMK A01 T02320144  RH  060%=      5-min Rain = 0
KSGV 120920Z 19006KT 23/14 A301 RMK A01 T02320144  RH  060%=      5-min Rain = 0
KSGV 120925Z 19007KT 23/14 A301 RMK A01 T02330144  RH  060%=      5-min Rain = 0
KSGV 120930Z 19008KT 23/14 A301 RMK A01 T02330144  RH  060%=      5-min Rain = 0
KSGV 120935Z 20008KT 23/14 A301 RMK A01 T02340144  RH  060%=      5-min Rain = 0
KSGV 120940Z 20007KT 23/15 A301 RMK A01 T02330145  RH  060%=      5-min Rain = 0
KSGV 120945Z 20007KT 23/15 A3011 RMK A01 T02320145  RH  061%=      5-min Rain = 0
KSGV 120950Z 21006KT 23/15 A3011 RMK A01 T02300146  RH  062%=      5-min Rain = 0
KSGV 120955Z 21007KT 23/15 A3011 RMK A01 T02280146  RH  062%=      5-min Rain = 0
KSGV 121000Z 21007KT 23/15 A3011 RMK A01 T02280146  RH  062%=      5-min Rain = 0
KSGV 121005Z 22006KT 23/15 A3011 RMK A01 T02270146  RH  063%=      5-min Rain = 0
KSGV 121010Z 21006KT 22/15 A3011 RMK A01 T02240147  RH  064%=      5-min Rain = 0
KSGV 121015Z 21006KT 22/15 A3011 RMK A01 T02240147  RH  064%=      5-min Rain = 0
KSGV 121020Z 20005KT 22/15 A301 RMK A01 T02230146  RH  064%=      5-min Rain = 0
KSGV 121025Z 20006KT 22/15 A3011 RMK A01 T02230145  RH  064%=      5-min Rain = 0
KSGV 121030Z 19006KT 22/15 A3011 RMK A01 T02240145  RH  063%=      5-min Rain = 0
KSGV 121035Z 18005KT 22/15 A3011 RMK A01 T02220145  RH  064%=      5-min Rain = 0
KSGV 121040Z 18005KT 22/15 A3011 RMK A01 T02200145  RH  065%=      5-min Rain = 0
KSGV 121045Z 19005KT 22/15 A3011 RMK A01 T02180145  RH  066%=      5-min Rain = 0
KSGV 121050Z 20005KT 22/15 A3011 RMK A01 T02160145  RH  066%=      5-min Rain = 0
KSGV 121055Z 19005KT 22/14 A3011 RMK A01 T02160144  RH  067%=      5-min Rain = 0
KSGV 121100Z 19005KT 21/14 A3011 RMK A01 T02140144  RH  067%=      5-min Rain = 0
KSGV 121105Z 19005KT 21/14 A3011 RMK A01 T02130144  RH  068%=      5-min Rain = 0
KSGV 121110Z 19005KT 21/15 A3011 RMK A01 T02110145  RH  069%=      5-min Rain = 0
KSGV 121115Z 18005KT 21/15 A3011 RMK A01 T02100145  RH  069%=      5-min Rain = 0
KSGV 121120Z 17005KT 21/15 A3012 RMK A01 T02100145  RH  069%=      5-min Rain = 0
KSGV 121125Z 17005KT 21/15 A3012 RMK A01 T02110145  RH  069%=      5-min Rain = 0
KSGV 121130Z 17005KT 21/15 A3012 RMK A01 T02110145  RH  069%=      5-min Rain = 0
KSGV 121135Z 17005KT 21/14 A3012 RMK A01 T02100144  RH  069%=      5-min Rain = 0
KSGV 121140Z 17005KT 21/14 A3012 RMK A01 T02100144  RH  069%=      5-min Rain = 0
KSGV 121145Z 18005KT 21/14 A3012 RMK A01 T02100144  RH  069%=      5-min Rain = 0
KSGV 121150Z 20004KT 21/14 A3012 RMK A01 T02080144  RH  070%=      5-min Rain = 0
KSGV 121155Z 20005KT 21/15 A3013 RMK A01 T02090145  RH  070%=      5-min Rain = 0
KSGV 121200Z 20004KT 21/15 A3013 RMK A01 T02110146  RH  069%=      5-min Rain = 0
KSGV 121205Z 20004KT 21/15 A3013 RMK A01 T02120146  RH  069%=      5-min Rain = 0
KSGV 121210Z 21004KT 21/15 A3013 RMK A01 T02130147  RH  069%=      5-min Rain = 0
KSGV 121215Z 21004KT 21/15 A3013 RMK A01 T02140148  RH  069%=      5-min Rain = 0
KSGV 121220Z 20003KT 22/15 A3013 RMK A01 T02160148  RH  069%=      5-min Rain = 0
KSGV 121225Z 19004KT 22/15 A3013 RMK A01 T02180149  RH  068%=      5-min Rain = 0
KSGV 121230Z 18004KT 22/15 A3013 RMK A01 T02210149  RH  066%=      5-min Rain = 0
KSGV 121235Z 18004KT 22/15 A3014 RMK A01 T02220149  RH  066%=      5-min Rain = 0
KSGV 121240Z 16004KT 22/15 A3014 RMK A01 T02210150  RH  067%=      5-min Rain = 0
KSGV 121245Z 14003KT 22/15 A3014 RMK A01 T02220151  RH  067%=      5-min Rain = 0
KSGV 121250Z 12003KT 22/15 A3015 RMK A01 T02230151  RH  067%=      5-min Rain = 0
KSGV 121255Z 09003KT 22/15 A3015 RMK A01 T02240151  RH  066%=      5-min Rain = 0
KSGV 121300Z 08003KT 23/15 A3016 RMK A01 T02290151  RH  064%=      5-min Rain = 0
KSGV 121305Z 08004KT 23/15 A3016 RMK A01 T02300151  RH  064%=      5-min Rain = 0
KSGV 121310Z 06004KT 23/15 A3016 RMK A01 T02320151  RH  063%=      5-min Rain = 0
KSGV 121315Z 05004KT 24/15 A3016 RMK A01 T02370151  RH  061%=      5-min Rain = 0
KSGV 121320Z 07003KT 24/15 A3016 RMK A01 T02370150  RH  061%=      5-min Rain = 0
KSGV 121325Z 07004KT 24/15 A3016 RMK A01 T02380150  RH  060%=      5-min Rain = 0
KSGV 121330Z 06003KT 24/15 A3016 RMK A01 T02370149  RH  061%=      5-min Rain = 0
KSGV 121335Z 06002KT 24/15 A3017 RMK A01 T02390149  RH  060%=      5-min Rain = 0
KSGV 121340Z 04003KT 24/15 A3017 RMK A01 T02370149  RH  060%=      5-min Rain = 0
KSGV 121345Z 02004KT 24/15 A3018 RMK A01 T02380149  RH  060%=      5-min Rain = 0
KSGV 121350Z 36005KT 24/15 A3018 RMK A01 T02400148  RH  059%=      5-min Rain = 0
KSGV 121355Z 36004KT 24/15 A3018 RMK A01 T02430148  RH  058%=      5-min Rain = 0
KSGV 121400Z 35005KT 24/15 A3019 RMK A01 T02440148  RH  058%=      5-min Rain = 0
KSGV 121405Z 36004KT 25/15 A3019 RMK A01 T02450147  RH  057%=      5-min Rain = 0
KSGV 121410Z 02003KT 25/15 A3019 RMK A01 T02490147  RH  055%=      5-min Rain = 0
KSGV 121415Z 35003KT 25/15 A3019 RMK A01 T02520147  RH  055%=      5-min Rain = 0
KSGV 121420Z 32004KT 25/15 A3019 RMK A01 T02520147  RH  054%=      5-min Rain = 0
KSGV 121425Z 32004KT 25/15 A302 RMK A01 T02530146  RH  054%=      5-min Rain = 0
KSGV 121430Z 30003KT 26/15 A302 RMK A01 T02580146  RH  052%=      5-min Rain = 0
KSGV 121435Z 31005KT 26/15 A3019 RMK A01 T02600147  RH  052%=      5-min Rain = 0
KSGV 121440Z 28006KT 26/15 A3019 RMK A01 T02630146  RH  051%=      5-min Rain = 0
KSGV 121445Z 31003KT 27/15 A3019 RMK A01 T02660146  RH  050%=      5-min Rain = 0
KSGV 121450Z 27004KT 27/15 A3019 RMK A01 T02660145  RH  049%=      5-min Rain = 0
KSGV 121455Z 29003KT 27/14 A3019 RMK A01 T02680144  RH  049%=      5-min Rain = 0
KSGV 121500Z 01001KT 27/14 A3019 RMK A01 T02690144  RH  048%=      5-min Rain = 0
KSGV 121505Z 30003KT 27/15 A3019 RMK A01 T02740145  RH  047%=      5-min Rain = 0
KSGV 121510Z 31003KT 27/15 A3019 RMK A01 T02740146  RH  048%=      5-min Rain = 0
KSGV 121515Z 34004KT 28/15 A3019 RMK A01 T02750146  RH  047%=      5-min Rain = 0
KSGV 121520Z 01003KT 27/15 A3018 RMK A01 T02740145  RH  047%=      5-min Rain = 0
KSGV 121525Z 35002KT 28/14 A3018 RMK A01 T02750144  RH  047%=      5-min Rain = 0
KSGV 121530Z 19001KT 28/14 A3018 RMK A01 T02780142  RH  045%=      5-min Rain = 0
KSGV 121535Z 22002KT 28/14 A3018 RMK A01 T02830140  RH  043%=      5-min Rain = 0
KSGV 121540Z 21003KT 28/14 A3018 RMK A01 T02800139  RH  044%=      5-min Rain = 0
KSGV 121545Z 00001KT 28/14 A3018 RMK A01 T02830140  RH  043%=      5-min Rain = 0
KSGV 121550Z 20004G9KT 28/14 A3018 RMK A01 T02810137  RH  043%=      5-min Rain = 0
KSGV 121555Z 22006KT 28/14 A3018 RMK A01 T02790137  RH  043%=      5-min Rain = 0
KSGV 121600Z 22003G8KT 28/14 A3018 RMK A01 T02800137  RH  043%=      5-min Rain = 0
KSGV 121605Z 22006KT 28/14 A3018 RMK A01 T02840139  RH  043%=      5-min Rain = 0
KSGV 121610Z 24003G8KT 29/14 A3018 RMK A01 T02860140  RH  042%=      5-min Rain = 0
KSGV 121615Z 27004KT 29/14 A3018 RMK A01 T02910140  RH  041%=      5-min Rain = 0
KSGV 121620Z 23005KT 29/14 A3018 RMK A01 T02880137  RH  041%=      5-min Rain = 0
KSGV 121625Z 27003G8KT 29/14 A3018 RMK A01 T02900139  RH  041%=      5-min Rain = 0
KSGV 121630Z 24006KT 29/14 A3018 RMK A01 T02880138  RH  041%=      5-min Rain = 0
KSGV 121635Z 26004KT 29/14 A3018 RMK A01 T02910139  RH  041%=      5-min Rain = 0
KSGV 121640Z 24005KT 29/14 A3018 RMK A01 T02930140  RH  041%=      5-min Rain = 0
KSGV 121645Z 27004KT 29/14 A3018 RMK A01 T02940139  RH  040%=      5-min Rain = 0
KSGV 121650Z 27004KT 30/14 A3018 RMK A01 T02950141  RH  041%=      5-min Rain = 0
KSGV 121655Z 20004KT 30/13 A3018 RMK A01 T02990132  RH  037%=      5-min Rain = 0
KSGV 121700Z 18004KT 30/13 A3018 RMK A01 T03020134  RH  037%=      5-min Rain = 0
KSGV 121705Z 23003G8KT 30/13 A3018 RMK A01 T03030133  RH  037%=      5-min Rain = 0
KSGV 121710Z 19006KT 30/14 A3018 RMK A01 T03040136  RH  037%=      5-min Rain = 0
KSGV 121715Z 21002KT 30/14 A3017 RMK A01 T03020137  RH  038%=      5-min Rain = 0
KSGV 121720Z 21003KT 30/14 A3017 RMK A01 T03040137  RH  038%=      5-min Rain = 0
KSGV 121725Z 14006KT 31/13 A3017 RMK A01 T03110133  RH  035%=      5-min Rain = 0
KSGV 121730Z 17007KT 31/13 A3017 RMK A01 T03140130  RH  034%=      5-min Rain = 0
KSGV 121735Z 19005G10KT 31/13 A3017 RMK A01 T03130127  RH  034%=      5-min Rain = 0
KSGV 121740Z 18005G11KT 32/12 A3017 RMK A01 T03160123  RH  032%=      5-min Rain = 0
KSGV 121745Z 18004KT 32/13 A3017 RMK A01 T03190127  RH  032%=      5-min Rain = 0
KSGV 121750Z 14005G10KT 32/13 A3017 RMK A01 T03240131  RH  032%=      5-min Rain = 0
KSGV 121755Z 15008G13KT 33/13 A3017 RMK A01 T03270131  RH  032%=      5-min Rain = 0
KSGV 121800Z 13004KT 32/13 A3016 RMK A01 T03150130  RH  034%=      5-min Rain = 0
KSGV 121805Z 15007G12KT 32/13 A3016 RMK A01 T03170132  RH  034%=      5-min Rain = 0
KSGV 121810Z 17007G12KT 32/13 A3016 RMK A01 T03180130  RH  033%=      5-min Rain = 0
KSGV 121815Z 13007G14KT 32/13 A3016 RMK A01 T03220130  RH  032%=      5-min Rain = 0
KSGV 121820Z 13006G12KT 32/13 A3016 RMK A01 T03200130  RH  033%=      5-min Rain = 0
KSGV 121825Z 16007G15KT 33/13 A3015 RMK A01 T03250129  RH  032%=      5-min Rain = 0
KSGV 121830Z 15013G19KT 33/12 A3015 RMK A01 T03330120  RH  028%=      5-min Rain = 0
KSGV 121835Z 18012G18KT 34/12 A3015 RMK A01 T03360120  RH  028%=      5-min Rain = 0
KSGV 121840Z 16010G19KT 34/12 A3015 RMK A01 T03350123  RH  029%=      5-min Rain = 0
KSGV 121845Z 15013G20KT 34/13 A3015 RMK A01 T03390125  RH  028%=      5-min Rain = 0
KSGV 121850Z 13011G16KT 34/13 A3014 RMK A01 T03410125  RH  028%=      5-min Rain = 0
KSGV 121855Z 14009G16KT 33/13 A3014 RMK A01 T03290126  RH  030%=      5-min Rain = 0
KSGV 121900Z 17011G17KT 33/13 A3014 RMK A01 T03340127  RH  030%=      5-min Rain = 0
KSGV 121905Z 16011G17KT 34/13 A3014 RMK A01 T03390130  RH  029%=      5-min Rain = 0
KSGV 121910Z 16012G18KT 33/13 A3014 RMK A01 T03320127  RH  030%=      5-min Rain = 0
KSGV 121915Z 14009G16KT 33/13 A3014 RMK A01 T03270129  RH  031%=      5-min Rain = 0
KSGV 121920Z 16008G14KT 34/13 A3014 RMK A01 T03350128  RH  030%=      5-min Rain = 0
KSGV 121925Z 16008G13KT 33/13 A3014 RMK A01 T03330126  RH  030%=      5-min Rain = 0
KSGV 121930Z 16011G17KT 34/12 A3013 RMK A01 T03380120  RH  028%=      5-min Rain = 0
KSGV 121935Z 17012G18KT 34/12 A3013 RMK A01 T03400120  RH  027%=      5-min Rain = 0
KSGV 121940Z 18012KT 33/12 A3013 RMK A01 T03340115  RH  027%=      5-min Rain = 0
KSGV 121945Z 15010G15KT 33/12 A3013 RMK A01 T03330123  RH  029%=      5-min Rain = 0
KSGV 121950Z 16010KT 34/13 A3013 RMK A01 T03390125  RH  028%=      5-min Rain = 0
KSGV 121955Z 17010G15KT 35/12 A3012 RMK A01 T03450121  RH  027%=      5-min Rain = 0
KSGV 122000Z 16009G15KT 35/12 A3012 RMK A01 T03450123  RH  027%=      5-min Rain = 0
KSGV 122005Z 15010G15KT 35/12 A3012 RMK A01 T03460124  RH  027%=      5-min Rain = 0
KSGV 122010Z 14007G13KT 35/12 A3012 RMK A01 T03450123  RH  027%=      5-min Rain = 0
KSGV 122015Z 16010KT 34/12 A3011 RMK A01 T03410116  RH  026%=      5-min Rain = 0
KSGV 122020Z 16009G14KT 34/12 A3011 RMK A01 T03410120  RH  027%=      5-min Rain = 0
KSGV 122025Z 16009G15KT 34/12 A3011 RMK A01 T03400121  RH  028%=      5-min Rain = 0
KSGV 122030Z 15012G17KT 34/12 A3011 RMK A01 T03430123  RH  027%=      5-min Rain = 0
KSGV 122035Z 15007G12KT 34/12 A3011 RMK A01 T03360123  RH  029%=      5-min Rain = 0
KSGV 122040Z 16011G22KT 34/12 A301 RMK A01 T03430122  RH  027%=      5-min Rain = 0
KSGV 122045Z 15012KT 34/12 A301 RMK A01 T03420118  RH  027%=      5-min Rain = 0
KSGV 122050Z 14010G17KT 34/12 A301 RMK A01 T03360117  RH  027%=      5-min Rain = 0
KSGV 122055Z 15009G14KT 34/12 A301 RMK A01 T03350117  RH  028%=      5-min Rain = 0
KSGV 122100Z 14009G15KT 34/12 A301 RMK A01 T03430116  RH  026%=      5-min Rain = 0
KSGV 122105Z 12009G15KT 34/12 A301 RMK A01 T03430117  RH  026%=      5-min Rain = 0
KSGV 122110Z 13010G16KT 34/12 A3009 RMK A01 T03420118  RH  027%=      5-min Rain = 0
KSGV 122115Z 15012KT 34/12 A3009 RMK A01 T03390119  RH  027%=      5-min Rain = 0
KSGV 122120Z 14009G16KT 33/12 A3009 RMK A01 T03330119  RH  028%=      5-min Rain = 0
KSGV 122125Z 12010KT 33/12 A3009 RMK A01 T03330119  RH  028%=      5-min Rain = 0
KSGV 122130Z 14008G13KT 34/12 A3008 RMK A01 T03380120  RH  028%=      5-min Rain = 0
KSGV 122135Z 15010KT 34/12 A3008 RMK A01 T03430119  RH  027%=      5-min Rain = 0
KSGV 122140Z 14009G15KT 34/12 A3008 RMK A01 T03410118  RH  027%=      5-min Rain = 0
KSGV 122145Z 18010KT 33/12 A3008 RMK A01 T03340118  RH  028%=      5-min Rain = 0
KSGV 122150Z 17010KT 33/12 A3008 RMK A01 T03330118  RH  028%=      5-min Rain = 0
KSGV 122155Z 17009KT 34/12 A3008 RMK A01 T03360118  RH  028%=      5-min Rain = 0
KSGV 122200Z 16009G15KT 34/12 A3007 RMK A01 T03370119  RH  028%=      5-min Rain = 0
KSGV 122205Z 14008KT 34/12 A3007 RMK A01 T03380118  RH  027%=      5-min Rain = 0
KSGV 122210Z 17013KT 33/12 A3007 RMK A01 T03310115  RH  028%=      5-min Rain = 0
KSGV 122215Z 16009KT 33/12 A3007 RMK A01 T03280115  RH  028%=      5-min Rain = 0
KSGV 122220Z 14009G16KT 33/12 A3007 RMK A01 T03340118  RH  028%=      5-min Rain = 0
KSGV 122225Z 14010G15KT 33/12 A3007 RMK A01 T03330115  RH  028%=      5-min Rain = 0
KSGV 122230Z 15009KT 33/12 A3007 RMK A01 T03300115  RH  028%=      5-min Rain = 0
KSGV 122235Z 14007G13KT 34/12 A3007 RMK A01 T03350118  RH  028%=      5-min Rain = 0
KSGV 122240Z 16010G16KT 35/12 A3006 RMK A01 T03470118  RH  026%=      5-min Rain = 0
KSGV 122245Z 15012KT 34/12 A3006 RMK A01 T03440117  RH  026%=      5-min Rain = 0
KSGV 122250Z 15010G16KT 34/12 A3006 RMK A01 T03410116  RH  026%=      5-min Rain = 0
KSGV 122255Z 14010G16KT 34/12 A3006 RMK A01 T03370115  RH  027%=      5-min Rain = 0
KSGV 122300Z 15010G15KT 34/12 A3006 RMK A01 T03430116  RH  026%=      5-min Rain = 0
KSGV 122305Z 15009KT 34/11 A3006 RMK A01 T03440113  RH  025%=      5-min Rain = 0
KSGV 122310Z 16010KT 35/11 A3006 RMK A01 T03460114  RH  025%=      5-min Rain = 0
KSGV 122315Z 15012G17KT 34/12 A3006 RMK A01 T03420115  RH  026%=      5-min Rain = 0
KSGV 122320Z 16011KT 34/11 A3006 RMK A01 T03430112  RH  025%=      5-min Rain = 0
KSGV 122325Z 13012KT 34/11 A3006 RMK A01 T03400113  RH  026%=      5-min Rain = 0
KSGV 122330Z 16011G19KT 35/11 A3006 RMK A01 T03480113  RH  025%=      5-min Rain = 0
KSGV 122335Z 16012G19KT 35/11 A3005 RMK A01 T03450110  RH  025%=      5-min Rain = 0
KSGV 122340Z 15010G16KT 34/11 A3005 RMK A01 T03420110  RH  025%=      5-min Rain = 0
KSGV 122345Z 14009G15KT 34/11 A3005 RMK A01 T03390107  RH  025%=      5-min Rain = 0
KSGV 122350Z 15011G16KT 34/10 A3005 RMK A01 T03400103  RH  024%=      5-min Rain = 0
KSGV 122355Z 18011G18KT 35/11 A3005 RMK A01 T03450106  RH  024%=      5-min Rain = 0
KSGV 130000Z 17012G17KT 34/10 A3005 RMK A01 T03420104  RH  024%=      5-min Rain = 0
KSGV 130005Z 20011G16KT 34/10 A3005 RMK A01 T03410104  RH  024%=      5-min Rain = 0
KSGV 130010Z 19012KT 34/10 A3005 RMK A01 T03380104  RH  025%=      5-min Rain = 0
KSGV 130015Z 19011KT 34/11 A3005 RMK A01 T03370105  RH  025%=      5-min Rain = 0
KSGV 130020Z 18010KT 34/11 A3005 RMK A01 T03380105  RH  025%=      5-min Rain = 0
KSGV 130025Z 17008KT 34/10 A3005 RMK A01 T03360102  RH  025%=      5-min Rain = 0
KSGV 130030Z 17010G16KT 34/10 A3005 RMK A01 T03370099  RH  024%=      5-min Rain = 0
KSGV 130035Z 17010KT 34/10 A3005 RMK A01 T03370099  RH  024%=      5-min Rain = 0
KSGV 130040Z 19011KT 34/10 A3005 RMK A01 T03350101  RH  025%=      5-min Rain = 0
KSGV 130045Z 19010G15KT 33/10 A3005 RMK A01 T03340102  RH  025%=      5-min Rain = 0
KSGV 130050Z 19011KT 33/11 A3005 RMK A01 T03320105  RH  026%=      5-min Rain = 0
KSGV 130055Z 19013KT 33/11 A3005 RMK A01 T03300107  RH  026%=      5-min Rain = 0
KSGV 130100Z 18011G16KT 33/11 A3005 RMK A01 T03300108  RH  027%=      5-min Rain = 0
KSGV 130105Z 18011KT 33/11 A3005 RMK A01 T03280108  RH  027%=      5-min Rain = 0
KSGV 130110Z 19012KT 33/11 A3005 RMK A01 T03270108  RH  027%=      5-min Rain = 0
KSGV 130115Z 18011KT 33/11 A3005 RMK A01 T03250108  RH  027%=      5-min Rain = 0
KSGV 130120Z 18010KT 32/11 A3005 RMK A01 T03220108  RH  028%=      5-min Rain = 0
KSGV 130125Z 18010KT 32/11 A3005 RMK A01 T03190107  RH  028%=      5-min Rain = 0
KSGV 130130Z 19009G14KT 32/11 A3005 RMK A01 T03170108  RH  029%=      5-min Rain = 0
KSGV 130135Z 18010KT 32/11 A3005 RMK A01 T03150108  RH  029%=      5-min Rain = 0
KSGV 130140Z 19008KT 31/11 A3005 RMK A01 T03130108  RH  029%=      5-min Rain = 0
KSGV 130145Z 19007KT 31/11 A3005 RMK A01 T03100108  RH  030%=      5-min Rain = 0
KSGV 130150Z 19007KT 31/11 A3006 RMK A01 T03080109  RH  030%=      5-min Rain = 0
KSGV 130155Z 19006KT 31/11 A3006 RMK A01 T03050109  RH  031%=      5-min Rain = 0
KSGV 130200Z 19006KT 30/11 A3006 RMK A01 T03020109  RH  032%=      5-min Rain = 0
KSGV 130205Z 18006KT 30/11 A3006 RMK A01 T02980112  RH  033%=      5-min Rain = 0
KSGV 130210Z 18006KT 29/11 A3006 RMK A01 T02940112  RH  034%=      5-min Rain = 0
KSGV 130215Z 18006KT 29/12 A3006 RMK A01 T02910115  RH  035%=      5-min Rain = 0
KSGV 130220Z 19006KT 29/12 A3006 RMK A01 T02880116  RH  036%=      5-min Rain = 0
KSGV 130225Z 19006KT 29/12 A3007 RMK A01 T02850117  RH  037%=      5-min Rain = 0
KSGV 130230Z 19006KT 28/12 A3007 RMK A01 T02830117  RH  037%=      5-min Rain = 0
KSGV 130235Z 19006KT 28/12 A3007 RMK A01 T02810117  RH  038%=      5-min Rain = 0
KSGV 130240Z 19006KT 28/12 A3008 RMK A01 T02790118  RH  038%=      5-min Rain = 0
KSGV 130245Z 19006KT 28/12 A3008 RMK A01 T02780119  RH  039%=      5-min Rain = 0
KSGV 130250Z 19006KT 28/12 A3008 RMK A01 T02770120  RH  039%=      5-min Rain = 0
KSGV 130255Z 18006KT 28/12 A3008 RMK A01 T02750121  RH  040%=      5-min Rain = 0
KSGV 130300Z 18006KT 27/12 A3008 RMK A01 T02730122  RH  040%=      5-min Rain = 0
KSGV 130305Z 18005KT 27/12 A3008 RMK A01 T02720122  RH  041%=      5-min Rain = 0
KSGV 130310Z 18005KT 27/12 A3009 RMK A01 T02690121  RH  041%=      5-min Rain = 0
KSGV 130315Z 18005KT 27/12 A3009 RMK A01 T02670123  RH  042%=      5-min Rain = 0
KSGV 130320Z 18005KT 27/12 A3009 RMK A01 T02650124  RH  043%=      5-min Rain = 0
KSGV 130325Z 19006KT 26/12 A3009 RMK A01 T02640124  RH  044%=      5-min Rain = 0
KSGV 130330Z 19006KT 26/12 A301 RMK A01 T02640124  RH  043%=      5-min Rain = 0
KSGV 130335Z 19006KT 26/13 A301 RMK A01 T02640127  RH  044%=      5-min Rain = 0
KSGV 130340Z 20006KT 27/12 A301 RMK A01 T02670123  RH  043%=      5-min Rain = 0
KSGV 130345Z 20007KT 27/12 A301 RMK A01 T02670124  RH  043%=      5-min Rain = 0
KSGV 130350Z 19006KT 27/13 A3011 RMK A01 T02690125  RH  042%=      5-min Rain = 0
KSGV 130355Z 19006KT 27/13 A3011 RMK A01 T02660128  RH  044%=      5-min Rain = 0
KSGV 130400Z 19006KT 26/13 A3011 RMK A01 T02610130  RH  046%=      5-min Rain = 0
KSGV 130405Z 19006KT 26/13 A3011 RMK A01 T02570131  RH  048%=      5-min Rain = 0
KSGV 130410Z 20006KT 26/13 A3011 RMK A01 T02550130  RH  048%=      5-min Rain = 0
KSGV 130415Z 20006KT 26/13 A3011 RMK A01 T02560128  RH  047%=      5-min Rain = 0
KSGV 130420Z 20005KT 26/13 A3012 RMK A01 T02560129  RH  047%=      5-min Rain = 0
KSGV 130425Z 20005KT 26/13 A3012 RMK A01 T02560130  RH  048%=      5-min Rain = 0
KSGV 130430Z 19005KT 26/13 A3012 RMK A01 T02560132  RH  048%=      5-min Rain = 0
KSGV 130435Z 20005KT 26/14 A3012 RMK A01 T02550135  RH  049%=      5-min Rain = 0
KSGV 130440Z 19006KT 25/14 A3012 RMK A01 T02520136  RH  050%=      5-min Rain = 0
KSGV 130445Z 19005KT 25/14 A3012 RMK A01 T02500136  RH  051%=      5-min Rain = 0
KSGV 130450Z 18005KT 25/14 A3012 RMK A01 T02490135  RH  051%=      5-min Rain = 0
KSGV 130455Z 18006KT 25/14 A3012 RMK A01 T02480136  RH  052%=      5-min Rain = 0

Page generated in 0.009 seconds.